Tuesday, January 23, 2018, 11:51 PM GMT
Back to Local

CYYG, Charlottetown, P. E. I.

Location: , , Canada Lat: 46.283
Local Time: 11:51 PM GMT (23:51 GMT) Lon: -63.133
Time Zone: GMT Elev: 157 ft

Show me the last for .
Show Decoded

2018-01-23 23:34 METAR CYYG 232334Z 14017G27KT 15SM -DZ OVC006 02/01 A2983 RMK SF8 SLP107 =
2018-01-23 23:00 METAR CYYG 232300Z 15022G29KT 12SM -RA OVC007 01/00 A2986 RMK SC8 PRESFR SLP117
                 =
2018-01-23 22:22 METAR CYYG 232222Z 15021G27KT 10SM -RA OVC008 01/M01 A2991 RMK SC8 SLP132 =
2018-01-23 22:00 METAR CYYG 232200Z 15021G27KT 12SM -RA OVC010 00/M01 A2992 RMK SC8 SLP137 =
2018-01-23 21:50 METAR CYYG 232150Z 15021G29KT 12SM -FZRA OVC012 M00/M02 A2993 RMK SC8 SLP139 =
2018-01-23 21:00 METAR CYYG 232100Z 15020G27KT 15SM OVC014 M01/M02 A2997 RMK SC8 SLP153 =
2018-01-23 20:00 METAR CYYG 232000Z 14015KT 12SM OVC011 M03/M04 A3002 RMK SC8 SLP171 =
2018-01-23 19:22 METAR CYYG 231922Z 13014G20KT 12SM OVC011 M04/M05 A3005 RMK SC8 SLP180 =
2018-01-23 19:00 METAR CYYG 231900Z 13015G20KT 10SM -FZDZ OVC009 M04/M06 A3006 RMK NS8 SLP185 =
2018-01-23 18:40 METAR CYYG 231840Z 14013G19KT 10SM OVC010 M05/M06 A3008 RMK NS8 SLP190 =
2018-01-23 18:29 METAR CYYG 231829Z 14013G18KT 10SM -FZRA OVC009 M05/M06 A3008 RMK NS8 SLP192 =
2018-01-23 18:00 METAR CYYG 231800Z 13014G19KT 10SM -FZRA -PL OVC010 M05/M07 A3011 RMK NS8 /S04/
                 OBS TAKEN +10 SLP201 =
2018-01-23 17:47 METAR CYYG 231747Z 13013G21KT 8SM -FZRA -PL BKN010 OVC028 M05/M07 A3011 RMK
                 SC5NS3 SLP201 =
2018-01-23 17:10 METAR CYYG 231710Z 12014KT 4SM -FZRA -PL OVC023 M06/M08 A3016 RMK NS8 ICE ON
                 INDICATOR PRESFR SLP217 =
2018-01-23 17:00 METAR CYYG 231700Z 12011G17KT 3SM -SNPL OVC023 M07/M08 A3017 RMK SN2NS6 PRESFR
                 SLP222 =
2018-01-23 16:55 METAR CYYG 231655Z 12012KT 2 1/2SM -SNPL OVC025 M07/M08 A3017 RMK SN2NS6 PRESFR
                 SLP223 =
2018-01-23 16:23 METAR CYYG 231623Z 13009KT 3/4SM R03/5000FT/D -SN VV012 M07/M08 A3022 RMK SN8
                 PRESFR SLP238 =
2018-01-23 16:00 METAR CYYG 231600Z 13011G16KT 1 1/4SM R03/5500VP6000FT/U -SN VV012 M07/M09 A3024
                 RMK SN8 /S02/ PRESFR SLP247 =
2018-01-23 15:16 METAR CYYG 231516Z 12009G16KT 3/4SM R03/5000FT/D -SN VV012 M08/M09 A3028 RMK SN8
                 SLP260 =
2018-01-23 15:00 METAR CYYG 231500Z 13012G17KT 1 1/2SM R03/5000FT/N -SN OVC020 M08/M10 A3030 RMK
                 SN2SC6 SLP265 =
2018-01-23 14:33 METAR CYYG 231433Z 14009KT 2 1/2SM -SN OVC027 M08/M10 A3032 RMK SN2SC6 SLP273 =
2018-01-23 14:00 METAR CYYG 231400Z 13008KT 15SM -SN OVC030 M08/M11 A3033 RMK SC8 SLP276 =
2018-01-23 13:16 METAR CYYG 231316Z 12007KT 12SM -SN OVC030 M09/M13 A3034 RMK SC8 SLP281 =
2018-01-23 13:00 METAR CYYG 231300Z 13007KT 15SM OVC037 M09/M13 A3036 RMK SC8 SLP286 =
2018-01-23 12:00 METAR CYYG 231200Z 13005KT 15SM OVC055 M09/M13 A3038 RMK SC8 SLP294 =
2018-01-23 11:00 METAR CYYG 231100Z 16003KT 15SM OVC086 M10/M13 A3040 RMK AC8 SLP299 =
2018-01-23 10:00 METAR CYYG 231000Z 16004KT 15SM OVC095 M10/M13 A3040 RMK AC8 SLP301 =
2018-01-23 09:00 METAR CYYG 230900Z 19003KT 15SM SCT085 OVC100 M11/M14 A3041 RMK AC4AC4 SLP304 =
2018-01-23 08:00 METAR CYYG 230800Z 00000KT 15SM BKN100 M11/M14 A3040 RMK AC7 SLP300 =
2018-01-23 07:00 METAR CYYG 230700Z 13003KT 15SM BKN100 OVC120 M12/M15 A3041 RMK AC5AC3 SLP303 =
2018-01-23 06:00 METAR CYYG 230600Z 00000KT 15SM BKN110 BKN190 M14/M17 A3040 RMK AC5CS2 SLP301 =
2018-01-23 05:00 METAR CYYG 230500Z 19002KT 15SM SCT130 BKN190 M18/M20 A3041 RMK AC3CS4 SLP302 =
2018-01-23 04:00 METAR CYYG 230400Z 17002KT 15SM SCT250 M18/M21 A3041 RMK CI3 SLP302 =
2018-01-23 03:00 METAR CYYG 230300Z 15003KT 15SM SCT250 M16/M21 A3042 RMK CI3 SLP306 =
2018-01-23 02:00 METAR CYYG 230200Z 13003KT 15SM SCT240 M18/M21 A3042 RMK CI3 SLP306 =
2018-01-23 01:00 METAR CYYG 230100Z 28004KT 250V340 15SM SCT230 M14/M18 A3042 RMK CI3 SLP306 =
2018-01-23 00:00 METAR CYYG 230000Z 25004KT 15SM FEW260 M13/M18 A3041 RMK CI2 SLP304 =

Support USWX by starting your Amazon purchase here.